createdAt,value
2023-06-11T00:03:44.358Z,36
2023-06-11T00:09:14.646Z,36
2023-06-11T00:20:14.597Z,36
2023-06-11T00:25:45.052Z,36
2023-06-11T00:31:15.599Z,36
2023-06-11T00:36:45.041Z,36
2023-06-11T00:42:15.506Z,36
2023-06-11T00:47:46.040Z,36
2023-06-11T00:53:16.711Z,36
2023-06-11T00:58:47.196Z,36
2023-06-11T01:04:17.876Z,36
2023-06-11T01:15:18.943Z,36.5
2023-06-11T01:20:49.291Z,36.5
2023-06-11T01:26:19.804Z,36.5
2023-06-11T01:31:50.401Z,36.5
2023-06-11T01:37:20.006Z,36.5
2023-06-11T01:48:20.929Z,36.5
2023-06-11T01:53:51.377Z,36.5
2023-06-11T01:59:21.893Z,36.5
2023-06-11T02:04:51.342Z,36.5
2023-06-11T02:10:21.853Z,36.5
2023-06-11T02:15:52.294Z,36.5
2023-06-11T02:21:23.028Z,36.5
2023-06-11T02:26:53.462Z,36.5
2023-06-11T02:32:23.989Z,36.5
2023-06-11T02:37:53.465Z,36.5
2023-06-11T02:43:23.930Z,36.5
2023-06-11T02:54:24.993Z,36.5
2023-06-11T02:59:55.478Z,36.5
2023-06-11T03:05:26.065Z,36.5
2023-06-11T03:10:56.542Z,36.5
2023-06-11T03:16:27.026Z,36.5
2023-06-11T03:21:56.489Z,37
2023-06-11T03:27:26.952Z,37
2023-06-11T03:32:57.500Z,37
2023-06-11T03:38:28.001Z,37
2023-06-11T03:43:58.484Z,37
2023-06-11T03:49:28.968Z,37
2023-06-11T03:54:59.559Z,37
2023-06-11T04:00:30.043Z,37
2023-06-11T04:05:59.545Z,37
2023-06-11T04:11:30.006Z,37
2023-06-11T04:17:00.478Z,37
2023-06-11T04:22:31.076Z,37.5
2023-06-11T04:28:01.622Z,37.5
2023-06-11T04:33:32.114Z,37.5
2023-06-11T04:39:02.708Z,37.5
2023-06-11T04:44:33.249Z,37.5
2023-06-11T04:50:03.653Z,37.5
2023-06-11T04:55:33.128Z,37.5
2023-06-11T05:01:03.584Z,37.5
2023-06-11T05:06:33.084Z,37.5
2023-06-11T05:12:03.572Z,37.5
2023-06-11T05:17:34.239Z,38
2023-06-11T05:23:03.508Z,38
2023-06-11T05:28:33.972Z,38.5
2023-06-11T05:34:04.450Z,39
2023-06-11T05:39:33.927Z,39
2023-06-11T05:45:04.438Z,39.5
2023-06-11T05:50:33.887Z,39
2023-06-11T05:56:04.418Z,39
2023-06-11T06:07:04.357Z,39
2023-06-11T06:12:34.800Z,39
2023-06-11T06:19:11.733Z,38.5
2023-06-11T06:24:40.874Z,39
2023-06-11T06:30:11.369Z,39
2023-06-11T06:35:40.842Z,39
2023-06-11T06:41:11.306Z,39.5
2023-06-11T06:46:41.799Z,39.5
2023-06-11T06:52:12.433Z,39
2023-06-11T06:57:42.876Z,38.5
2023-06-11T07:03:13.402Z,38.5
2023-06-11T07:08:42.906Z,38.5
2023-06-11T07:14:13.382Z,39
2023-06-11T07:19:43.891Z,39
2023-06-11T07:25:13.342Z,39
2023-06-11T07:30:43.803Z,39
2023-06-11T07:36:14.428Z,39
2023-06-11T07:41:44.903Z,38.5
2023-06-11T07:47:14.371Z,39
2023-06-11T07:52:44.847Z,38.5
2023-06-11T07:58:15.332Z,38.5
2023-06-11T08:03:45.916Z,38.5
2023-06-11T08:09:16.392Z,38
2023-06-11T08:14:46.956Z,38
2023-06-11T08:20:17.526Z,37
2023-06-11T08:25:48.028Z,37.5
2023-06-11T08:31:17.503Z,36.5
2023-06-11T08:36:47.968Z,36.5
2023-06-11T08:42:18.452Z,36
2023-06-11T08:47:47.972Z,36
2023-06-11T08:53:18.393Z,36
2023-06-11T08:58:48.875Z,35.5
2023-06-11T09:04:18.455Z,35
2023-06-11T09:09:48.822Z,34.5
2023-06-11T09:15:19.290Z,34.5
2023-06-11T09:20:48.806Z,34
2023-06-11T09:31:49.804Z,33
2023-06-11T09:37:19.222Z,33.5
2023-06-11T09:42:49.822Z,33
2023-06-11T09:48:20.133Z,32.5
2023-06-11T09:53:50.744Z,33.5
2023-06-11T10:00:27.322Z,34
2023-06-11T10:05:57.974Z,34.5
2023-06-11T10:11:28.447Z,35
2023-06-11T10:16:58.945Z,34.5
2023-06-11T10:22:28.423Z,33.5
2023-06-11T10:27:58.894Z,33
2023-06-11T10:33:29.406Z,33
2023-06-11T10:38:58.877Z,33
2023-06-11T10:44:29.336Z,33.5
2023-06-11T10:55:30.524Z,34
2023-06-11T11:01:00.965Z,34
2023-06-11T11:06:30.429Z,34
2023-06-11T11:12:00.897Z,34
2023-06-11T11:17:30.403Z,34.5
2023-06-11T11:23:00.870Z,34.5
2023-06-11T11:28:32.085Z,34.5
2023-06-11T11:34:02.116Z,34.5
2023-06-11T11:39:32.541Z,34
2023-06-11T11:45:02.025Z,34.5
2023-06-11T11:50:32.520Z,34.5
2023-06-11T11:56:06.293Z,34.5
2023-06-11T12:01:32.488Z,34.5
2023-06-11T12:07:02.938Z,34.5
2023-06-11T12:12:33.403Z,34.5
2023-06-11T12:18:02.938Z,35
2023-06-11T12:23:33.399Z,35
2023-06-11T12:29:02.834Z,35.5
2023-06-11T12:34:33.421Z,36
2023-06-11T12:40:03.898Z,34
2023-06-11T12:45:33.437Z,33
2023-06-11T12:51:03.884Z,32.5
2023-06-11T12:56:34.369Z,32.5
2023-06-11T13:02:03.853Z,32
2023-06-11T13:07:34.327Z,32
2023-06-11T13:13:03.790Z,31.5
2023-06-11T13:18:34.281Z,31
2023-06-11T13:24:04.936Z,31.5
2023-06-11T13:29:35.209Z,31
2023-06-11T13:35:04.733Z,30.5
2023-06-11T13:40:35.217Z,30
2023-06-11T13:46:05.658Z,31
2023-06-11T13:51:36.334Z,31.5
2023-06-11T13:57:06.722Z,30.5
2023-06-11T14:02:36.568Z,31
2023-06-11T14:08:06.862Z,30.5
2023-06-11T14:13:37.335Z,31
2023-06-11T14:19:06.803Z,30.5
2023-06-11T14:24:37.292Z,30.5
2023-06-11T14:30:06.794Z,30.5
2023-06-11T14:35:37.242Z,30.5
2023-06-11T14:41:07.696Z,31
2023-06-11T14:46:38.214Z,31
2023-06-11T14:52:08.762Z,31.5
2023-06-11T14:57:38.260Z,31
2023-06-11T15:03:11.295Z,30.5
2023-06-11T15:08:39.301Z,31
2023-06-11T15:14:08.776Z,31.5
2023-06-11T15:19:39.237Z,31.5
2023-06-11T15:25:08.724Z,31.5
2023-06-11T15:30:39.202Z,32
2023-06-11T15:36:09.697Z,32
2023-06-11T15:41:40.266Z,32.5
2023-06-11T15:47:10.831Z,32.5
2023-06-11T15:52:41.230Z,32.5
2023-06-11T15:58:11.822Z,32.5
2023-06-11T16:03:42.398Z,33
2023-06-11T16:09:12.850Z,33
2023-06-11T16:14:43.450Z,33
2023-06-11T16:20:14.290Z,33
2023-06-11T16:25:44.448Z,33
2023-06-11T16:31:15.016Z,33
2023-06-11T16:36:45.417Z,33
2023-06-11T16:42:15.026Z,33
2023-06-11T16:47:45.593Z,33.5
2023-06-11T16:53:15.962Z,33.5
2023-06-11T16:58:45.459Z,33.5
2023-06-11T17:04:16.000Z,33.5
2023-06-11T17:09:45.434Z,33.5
2023-06-11T17:15:16.109Z,33.5
2023-06-11T17:20:47.440Z,33.5
2023-06-11T17:31:46.369Z,33.5
2023-06-11T17:37:16.779Z,33.5
2023-06-11T17:42:47.398Z,33.5
2023-06-11T17:48:17.836Z,33.5
2023-06-11T17:53:48.437Z,33.5
2023-06-11T17:59:18.975Z,33.5
2023-06-11T18:10:18.913Z,33.5
2023-06-11T18:15:49.872Z,33.5
2023-06-11T18:21:19.882Z,33.5
2023-06-11T18:26:49.370Z,33.5
2023-06-11T18:32:19.812Z,33.5
2023-06-11T18:37:50.296Z,33.5
2023-06-11T18:43:20.878Z,33.5
2023-06-11T18:48:51.381Z,33.5
2023-06-11T18:59:52.594Z,34
2023-06-11T19:05:23.067Z,34
2023-06-11T19:10:53.648Z,34
2023-06-11T19:16:24.158Z,34
2023-06-11T19:21:54.585Z,33.5
2023-06-11T19:27:24.088Z,33.5
2023-06-11T19:32:54.641Z,34
2023-06-11T19:38:25.158Z,32
2023-06-11T19:49:26.106Z,31.5
2023-06-11T19:54:56.715Z,28.5
2023-06-11T20:00:27.218Z,26.5
2023-06-11T20:05:57.652Z,27
2023-06-11T20:11:27.210Z,27.5
2023-06-11T20:16:57.747Z,27
2023-06-11T20:22:27.210Z,26.5
2023-06-11T20:27:57.669Z,26.5
2023-06-11T20:33:28.133Z,27
2023-06-11T20:38:57.634Z,26.5
2023-06-11T20:44:28.082Z,27
2023-06-11T20:49:58.589Z,26.5
2023-06-11T20:55:29.138Z,26
2023-06-11T21:00:59.613Z,26
2023-06-11T21:06:30.099Z,26.5
2023-06-11T21:11:59.605Z,28.5
2023-06-11T21:17:30.069Z,29
2023-06-11T21:22:59.557Z,29.5
2023-06-11T21:28:30.024Z,30.5
2023-06-11T21:34:00.480Z,30.5
2023-06-11T21:39:31.094Z,30.5
2023-06-11T21:45:01.578Z,30.5
2023-06-11T21:50:32.037Z,30.5
2023-06-11T21:56:02.686Z,30.5
2023-06-11T22:01:33.188Z,30.5
2023-06-11T22:07:03.603Z,30
2023-06-11T22:12:34.187Z,29.5
2023-06-11T22:18:04.760Z,30
2023-06-11T22:23:49.598Z,30
2023-06-11T22:29:04.615Z,30.5
2023-06-11T22:34:35.092Z,30.5
2023-06-11T22:40:04.591Z,31
2023-06-11T22:45:35.061Z,30.5
2023-06-11T22:51:04.526Z,30.5
2023-06-11T22:56:35.029Z,30
2023-06-11T23:02:05.534Z,30.5
2023-06-11T23:07:35.014Z,30.5
2023-06-11T23:13:05.445Z,30.5
2023-06-11T23:18:35.935Z,30.5
2023-06-11T23:24:06.620Z,30.5
2023-06-11T23:29:37.001Z,30.5
2023-06-11T23:35:07.594Z,31
2023-06-11T23:40:38.095Z,30.5
2023-06-11T23:46:08.573Z,30.5
2023-06-11T23:51:39.162Z,30.5
2023-06-11T23:57:09.642Z,31.5
